Time;durP1;ratioP1;P1;durP2;ratioP2;P2;SDS_P1;SDS_P2;PMS_P1;PMS_P2;Temp;Humidity;BMP_temperature;BMP_pressure;BME280_temperature;BME280_humidity;BME280_pressure;Samples;Min_cycle;Max_cycle;Signal;HPM_P1;HPM_P2
2022/10/03 00:00:25;;;;;;;6.80;4.50;;;;;;;10.35;100.00;97538.88;5070195;28;20402;-79
2022/10/03 00:03:23;;;;;;;9.77;4.35;;;;;;;10.34;100.00;97540.69;5113612;28;20025;-80
2022/10/03 00:05:52;;;;;;;9.98;4.45;;;;;;;10.31;100.00;97538.19;5096498;28;20027;-79
2022/10/03 00:08:33;;;;;;;9.07;5.00;;;;;;;10.36;100.00;97545.09;5131655;28;20030;-79
2022/10/03 00:11:26;;;;;;;7.32;4.22;;;;;;;10.40;100.00;97549.31;5131924;28;20063;-78
2022/10/03 00:13:56;;;;;;;10.32;4.07;;;;;;;10.37;100.00;97538.81;5113556;28;20023;-79
2022/10/03 00:16:43;;;;;;;8.80;4.50;;;;;;;10.37;100.00;97536.97;5131666;28;20031;-78
2022/10/03 00:19:30;;;;;;;8.15;5.50;;;;;;;10.38;100.00;97549.38;5131685;28;20494;-78
2022/10/03 00:22:17;;;;;;;14.73;6.50;;;;;;;10.36;100.00;97542.41;5096364;28;20027;-78
2022/10/03 00:24:49;;;;;;;9.35;7.45;;;;;;;10.28;100.00;97546.41;5113429;28;20031;-79
2022/10/03 00:27:29;;;;;;;12.23;7.87;;;;;;;10.22;100.00;97528.06;5112939;28;20140;-79
2022/10/03 00:30:01;;;;;;;14.32;8.63;;;;;;;9.99;100.00;97520.56;5113253;28;20292;-79
2022/10/03 00:33:02;;;;;;;14.77;8.73;;;;;;;9.99;100.00;97525.03;5113258;28;20030;-79
2022/10/03 00:35:40;;;;;;;15.77;8.70;;;;;;;9.82;100.00;97512.69;5114849;27;20103;-78
2022/10/03 00:38:32;;;;;;;12.82;8.73;;;;;;;9.77;100.00;97518.31;5117016;27;20047;-78
2022/10/03 00:41:26;;;;;;;10.43;7.38;;;;;;;9.65;100.00;97524.38;5116740;27;20038;-79
2022/10/03 00:44:01;;;;;;;11.77;7.07;;;;;;;9.59;100.00;97521.19;5111882;27;20023;-79
2022/10/03 00:47:08;;;;;;;14.13;8.23;;;;;;;9.58;100.00;97531.03;5135418;27;20094;-79
2022/10/03 00:50:02;;;;;;;13.52;7.72;;;;;;;9.60;100.00;97538.94;5128703;27;20050;-79
2022/10/03 00:52:47;;;;;;;10.77;7.40;;;;;;;9.59;100.00;97531.88;5116913;27;20022;-79
2022/10/03 00:55:34;;;;;;;20.77;9.15;;;;;;;9.62;100.00;97543.25;5116707;27;20031;-78
2022/10/03 00:58:00;;;;;;;12.68;7.88;;;;;;;9.65;100.00;97535.06;5116403;27;20387;-79
2022/10/03 01:00:27;;;;;;;13.38;7.80;;;;;;;9.66;100.00;97525.22;5134934;27;20015;-79
2022/10/03 01:03:05;;;;;;;11.20;8.07;;;;;;;9.73;100.00;97539.94;5134783;27;20030;-77
2022/10/03 01:05:56;;;;;;;14.55;7.63;;;;;;;9.72;100.00;97532.91;5134715;27;20106;-78
2022/10/03 01:08:42;;;;;;;11.55;7.70;;;;;;;9.80;100.00;97530.63;5097695;27;20047;-77
2022/10/03 01:11:26;;;;;;;9.35;6.88;;;;;;;9.73;100.00;97518.56;5099452;27;20031;-78
2022/10/03 01:14:21;;;;;;;13.32;6.65;;;;;;;9.68;100.00;97520.66;5134823;27;20474;-78
2022/10/03 01:16:55;;;;;;;10.60;6.30;;;;;;;9.65;100.00;97520.84;5071844;28;20046;-78
2022/10/03 01:19:32;;;;;;;9.07;5.75;;;;;;;9.67;100.00;97518.94;5113975;27;20483;-79
2022/10/03 01:22:08;;;;;;;9.20;5.25;;;;;;;9.59;100.00;97506.03;5115931;27;20023;-79
2022/10/03 01:25:11;;;;;;;13.27;5.15;;;;;;;9.71;100.00;97520.47;5134519;27;20042;-79
2022/10/03 01:30:56;;;;;;;6.07;4.20;;;;;;;9.81;100.00;97506.47;5134645;27;20046;-79
2022/10/03 01:33:31;;;;;;;5.82;4.00;;;;;;;9.87;100.00;97505.28;5115982;27;20030;-79
2022/10/03 01:36:20;;;;;;;5.22;4.07;;;;;;;9.96;100.00;97510.06;5134095;27;20030;-79
2022/10/03 01:38:55;;;;;;;6.40;4.07;;;;;;;10.03;100.00;97502.53;5115750;27;20164;-78
2022/10/03 01:41:51;;;;;;;6.88;4.30;;;;;;;10.09;100.00;97497.66;5115902;27;20038;-78
2022/10/03 01:44:29;;;;;;;8.25;3.70;;;;;;;10.15;100.00;97488.47;5112135;27;20030;-79
2022/10/03 01:47:09;;;;;;;10.77;4.07;;;;;;;10.22;100.00;97485.31;5111861;27;20554;-78
2022/10/03 01:49:47;;;;;;;7.22;3.75;;;;;;;10.27;100.00;97488.53;5115492;27;20031;-79
2022/10/03 01:52:22;;;;;;;7.78;4.13;;;;;;;10.31;100.00;97495.44;5098719;27;20418;-79
2022/10/03 01:54:58;;;;;;;6.63;3.80;;;;;;;10.41;100.00;97489.50;5130580;27;20046;-80
2022/10/03 01:57:45;;;;;;;5.28;3.22;;;;;;;10.43;100.00;97487.63;5112564;27;20011;-79
2022/10/03 02:00:14;;;;;;;3.75;3.28;;;;;;;10.38;100.00;97477.19;5115223;27;20035;-79
2022/10/03 02:03:06;;;;;;;4.30;3.30;;;;;;;10.40;100.00;97479.78;5115383;27;20031;-79
2022/10/03 02:05:58;;;;;;;4.32;3.28;;;;;;;10.49;100.00;97480.03;5098317;27;20031;-78
2022/10/03 02:09:07;;;;;;;6.77;3.60;;;;;;;10.57;100.00;97474.22;5115350;27;20106;-78
2022/10/03 02:11:44;;;;;;;4.35;2.90;;;;;;;10.56;100.00;97468.03;5053667;28;20275;-78
2022/10/03 02:14:15;;;;;;;6.30;3.80;;;;;;;10.63;100.00;97473.84;5053963;28;20460;-79
2022/10/03 02:16:43;;;;;;;20.30;3.70;;;;;;;10.63;100.00;97473.84;5091481;28;20047;-77
2022/10/03 02:19:20;;;;;;;6.07;3.50;;;;;;;10.76;100.00;97477.47;5113174;27;20031;-79
2022/10/03 02:21:49;;;;;;;5.75;3.42;;;;;;;10.85;100.00;97463.50;5097547;27;20046;-78
2022/10/03 02:24:14;;;;;;;8.20;4.38;;;;;;;10.86;100.00;97467.88;5115313;27;20110;-79
2022/10/03 02:26:56;;;;;;;9.10;3.88;;;;;;;10.88;100.00;97458.81;5133298;27;20167;-79
2022/10/03 02:29:40;;;;;;;8.90;4.05;;;;;;;10.98;100.00;97455.53;5097748;27;20569;-78
2022/10/03 02:32:44;;;;;;;16.00;3.80;;;;;;;11.03;100.00;97461.44;5133129;27;20098;-78
2022/10/03 02:35:56;;;;;;;6.45;3.78;;;;;;;11.01;100.00;97450.00;5132725;27;20109;-78
2022/10/03 02:38:46;;;;;;;8.95;3.45;;;;;;;11.09;100.00;97458.38;5131595;27;20027;-78
2022/10/03 02:41:33;;;;;;;13.98;3.95;;;;;;;11.08;100.00;97454.81;5114667;27;20019;-79
2022/10/03 02:44:28;;;;;;;9.38;4.47;;;;;;;11.15;100.00;97460.63;5132926;27;20053;-79
2022/10/03 02:47:23;;;;;;;7.82;5.18;;;;;;;11.11;100.00;97459.97;5101909;27;20494;-79
2022/10/03 02:50:26;;;;;;;14.75;5.90;;;;;;;11.13;100.00;97451.84;5113202;27;20139;-80
2022/10/03 02:53:24;;;;;;;9.93;5.15;;;;;;;11.21;100.00;97455.75;5114355;27;20371;-79
2022/10/03 02:56:24;;;;;;;9.95;5.65;;;;;;;11.17;100.00;97448.88;5108435;27;20069;-80
2022/10/03 02:59:05;;;;;;;10.98;5.65;;;;;;;11.14;100.00;97441.03;5113618;27;20066;-79
2022/10/03 03:02:08;;;;;;;8.82;5.38;;;;;;;11.23;100.00;97448.47;5132303;27;20022;-80
2022/10/03 03:04:45;;;;;;;8.88;5.20;;;;;;;11.22;100.00;97445.91;5132612;27;20114;-79
2022/10/03 03:07:45;;;;;;;9.55;6.07;;;;;;;11.10;100.00;97436.88;5132354;27;20414;-78
2022/10/03 03:10:39;;;;;;;14.77;6.70;;;;;;;11.12;100.00;97440.28;5129950;27;20023;-79
2022/10/03 03:13:47;;;;;;;18.10;8.48;;;;;;;11.13;100.00;97439.34;5114538;27;20019;-78
2022/10/03 03:16:12;;;;;;;7.50;5.25;;;;;;;11.11;100.00;97443.06;5070445;27;20027;-79
2022/10/03 03:18:49;;;;;;;8.15;6.20;;;;;;;11.04;100.00;97450.66;5131385;27;20049;-80
2022/10/03 03:21:40;;;;;;;8.95;5.95;;;;;;;11.00;100.00;97445.59;5114315;27;20023;-79
2022/10/03 03:24:15;;;;;;;13.60;7.05;;;;;;;11.00;100.00;97446.44;5113832;28;20015;-79
2022/10/03 03:26:46;;;;;;;12.95;6.68;;;;;;;10.86;100.00;97439.31;5114069;27;20027;-78
2022/10/03 03:29:15;;;;;;;14.30;6.57;;;;;;;10.87;100.00;97445.53;5113559;28;20045;-79
2022/10/03 03:32:02;;;;;;;10.00;6.82;;;;;;;10.78;100.00;97440.75;5132085;27;20571;-79
2022/10/03 03:34:48;;;;;;;11.32;6.85;;;;;;;10.78;100.00;97440.75;5113870;28;20027;-78
2022/10/03 03:37:29;;;;;;;9.77;6.45;;;;;;;10.82;100.00;97448.50;5132186;28;20053;-79
2022/10/03 03:40:32;;;;;;;19.70;7.40;;;;;;;10.82;100.00;97439.63;5096565;28;20102;-79
2022/10/03 03:43:00;;;;;;;17.83;6.75;;;;;;;10.84;100.00;97435.00;5132185;28;20039;-78
2022/10/03 03:45:39;;;;;;;13.80;6.55;;;;;;;10.89;100.00;97444.44;5113561;28;20035;-80
2022/10/03 03:48:33;;;;;;;10.55;6.22;;;;;;;10.90;100.00;97439.97;5097039;28;20035;-79
2022/10/03 03:51:14;;;;;;;12.85;6.15;;;;;;;10.84;100.00;97446.59;5132541;28;20053;-82
2022/10/03 03:54:25;;;;;;;9.57;6.00;;;;;;;10.85;100.00;97444.78;5127720;28;20019;-79
2022/10/03 03:57:20;;;;;;;10.07;6.50;;;;;;;10.87;100.00;97440.16;5075796;28;20039;-79
2022/10/03 04:00:44;;;;;;;8.38;5.28;;;;;;;10.84;100.00;97440.38;5096928;28;20023;-80
2022/10/03 04:03:42;;;;;;;9.85;6.22;;;;;;;10.79;100.00;97438.00;5048371;28;20085;-80
2022/10/03 04:06:25;;;;;;;11.30;7.05;;;;;;;10.78;100.00;97446.97;5113831;28;20027;-79
2022/10/03 04:09:16;;;;;;;15.45;6.85;;;;;;;10.78;100.00;97451.47;5113728;28;20065;-78
2022/10/03 04:12:17;;;;;;;12.02;7.00;;;;;;;10.87;100.00;97462.44;5119346;27;20054;-80
2022/10/03 04:14:58;;;;;;;12.80;6.80;;;;;;;10.93;100.00;97455.81;5122467;27;20054;-80
2022/10/03 04:20:43;;;;;;;15.70;6.70;;;;;;;11.08;100.00;97459.31;5141825;27;20087;-78
2022/10/03 04:23:21;;;;;;;16.38;6.78;;;;;;;11.17;100.00;97456.03;5103520;27;20103;-79
2022/10/03 04:26:17;;;;;;;17.92;7.13;;;;;;;11.21;100.00;97461.09;5140318;27;20023;-79
2022/10/03 04:28:52;;;;;;;11.50;6.38;;;;;;;11.21;100.00;97455.75;5131546;27;20050;-78
2022/10/03 04:31:24;;;;;;;12.68;6.57;;;;;;;11.28;100.00;97450.84;5137516;27;20083;-79
2022/10/03 04:34:08;;;;;;;;;;;;;;;11.33;100.00;97448.72;5116418;27;20028;-80
2022/10/03 04:37:04;;;;;;;8.90;5.53;;;;;;;11.24;100.00;97442.16;5134128;27;19922;-79
2022/10/03 04:39:54;;;;;;;19.50;8.35;;;;;;;11.25;100.00;97446.56;5095751;27;20043;-79
2022/10/03 04:42:48;;;;;;;12.40;6.75;;;;;;;11.28;100.00;97438.31;5113089;27;20043;-78
2022/10/03 04:45:41;;;;;;;11.85;6.85;;;;;;;11.36;100.00;97449.38;5131808;27;20049;-81
2022/10/03 04:48:27;;;;;;;21.27;7.22;;;;;;;11.26;100.00;97447.38;5100516;27;20479;-82
2022/10/03 04:51:08;;;;;;;17.95;9.80;;;;;;;11.27;100.00;97449.97;5117423;27;20506;-84
2022/10/03 04:53:55;;;;;;;18.30;8.20;;;;;;;11.25;100.00;97451.06;5118348;27;20031;-85
2022/10/03 04:56:55;;;;;;;12.77;7.55;;;;;;;11.17;100.00;97448.00;5120018;27;20034;-85
2022/10/03 04:59:36;;;;;;;16.65;7.93;;;;;;;11.15;100.00;97449.94;5117616;27;20443;-84
2022/10/03 05:02:20;;;;;;;15.20;7.78;;;;;;;11.27;100.00;97454.47;5114046;27;20106;-83
2022/10/03 05:05:24;;;;;;;9.75;7.10;;;;;;;11.42;100.00;97457.00;5117971;27;20034;-83
2022/10/03 05:08:07;;;;;;;13.93;7.97;;;;;;;11.49;100.00;97456.59;5115960;27;20035;-85
2022/10/03 05:10:38;;;;;;;18.98;8.00;;;;;;;11.66;100.00;97451.78;5134845;27;20051;-84
2022/10/03 05:13:31;;;;;;;183.43;48.13;;;;;;;11.80;100.00;97453.59;5116415;27;20035;-83
2022/10/03 05:16:14;;;;;;;21.90;7.90;;;;;;;11.90;100.00;97443.97;5135630;27;20114;-84
2022/10/03 05:18:54;;;;;;;24.98;9.45;;;;;;;12.01;100.00;97440.53;5113222;27;20027;-83
2022/10/03 05:21:40;;;;;;;22.00;9.02;;;;;;;12.17;100.00;97436.69;5115138;27;20080;-83
2022/10/03 05:24:14;;;;;;;12.65;5.85;;;;;;;12.26;100.00;97414.56;5099267;27;20117;-83
2022/10/03 05:26:48;;;;;;;12.40;6.25;;;;;;;12.27;100.00;97408.25;5116390;27;20111;-84
2022/10/03 05:29:18;;;;;;;17.65;5.30;;;;;;;12.15;100.00;97384.97;5098823;27;20407;-84
2022/10/03 05:32:11;;;;;;;16.33;5.63;;;;;;;12.47;100.00;97396.94;5116750;27;20549;-84
2022/10/03 05:34:55;;;;;;;;;;;;;;;12.58;100.00;97398.00;5073474;27;20054;-84
2022/10/03 05:37:49;;;;;;;27.23;7.88;;;;;;;12.69;100.00;97390.03;5117101;27;19971;-84
2022/10/03 05:40:22;;;;;;;24.88;8.90;;;;;;;13.04;100.00;97385.63;5116989;27;20022;-83
2022/10/03 05:43:03;;;;;;;15.38;6.95;;;;;;;13.66;100.00;97351.28;5100180;27;20030;-83
2022/10/03 05:46:10;;;;;;;11.77;6.75;;;;;;;13.91;100.00;97355.63;5116849;27;20106;-83
2022/10/03 05:48:47;;;;;;;18.85;6.85;;;;;;;13.53;100.00;97337.94;5092946;27;20067;-83
2022/10/03 05:51:21;;;;;;;13.30;6.50;;;;;;;13.63;100.00;97348.03;5098975;27;20031;-83
2022/10/03 05:53:59;;;;;;;12.07;6.30;;;;;;;13.81;100.00;97360.03;5099556;27;20034;-84
2022/10/03 05:56:43;;;;;;;27.63;13.95;;;;;;;13.88;100.00;97362.09;5114755;27;20041;-83
2022/10/03 05:59:12;;;;;;;18.75;9.30;;;;;;;13.75;100.00;97350.59;5116379;27;20483;-84
2022/10/03 06:01:41;;;;;;;18.42;8.85;;;;;;;13.67;100.00;97352.16;5118187;27;20410;-83
2022/10/03 06:04:44;;;;;;;13.60;6.60;;;;;;;13.66;100.00;97351.28;5134144;27;20482;-84
2022/10/03 06:07:19;;;;;;;19.42;11.85;;;;;;;13.82;100.00;97359.03;5116116;27;20361;-84
2022/10/03 06:10:01;;;;;;;10.25;6.38;;;;;;;13.80;100.00;97363.69;5116289;27;20175;-84
2022/10/03 06:12:36;;;;;;;;;;;;;;;13.96;100.00;97369.59;5132674;27;20023;-83
2022/10/03 06:15:20;;;;;;;12.00;5.82;;;;;;;13.99;100.00;97364.81;5115970;27;19951;-84
2022/10/03 06:17:56;;;;;;;31.15;18.95;;;;;;;13.97;100.00;97355.13;5116183;27;20019;-84
2022/10/03 06:20:47;;;;;;;8.80;5.25;;;;;;;13.97;100.00;97358.69;5100620;27;20058;-83
2022/10/03 06:26:44;;;;;;;12.00;6.10;;;;;;;13.83;100.00;97344.63;5134635;27;20027;-83
2022/10/03 06:30:04;;;;;;;11.32;6.82;;;;;;;13.50;100.00;97340.03;5111266;28;20162;-83
2022/10/03 06:33:07;;;;;;;20.08;12.23;;;;;;;13.54;100.00;97379.97;5030761;28;20445;-83
2022/10/03 06:36:05;;;;;;;;;;;;;;;13.41;100.00;97378.38;5014203;28;20116;-83
2022/10/03 06:38:49;;;;;;;15.05;6.85;;;;;;;13.36;100.00;97400.19;5077193;28;20335;-84
2022/10/03 06:41:27;;;;;;;12.65;6.68;;;;;;;13.25;100.00;97413.59;5112443;28;20023;-84
2022/10/03 06:44:32;;;;;;;22.75;13.30;;;;;;;13.13;100.00;97395.69;5129401;27;20027;-83
2022/10/03 06:47:14;;;;;;;16.73;8.85;;;;;;;13.25;100.00;97415.41;5112360;28;20448;-85
2022/10/03 06:49:55;;;;;;;13.75;6.20;;;;;;;13.25;100.00;97423.47;5145068;27;20520;-85
2022/10/03 06:52:58;;;;;;;9.60;6.35;;;;;;;13.20;100.00;97445.28;5110483;28;20479;-85
2022/10/03 06:55:58;;;;;;;16.23;5.47;;;;;;;13.07;100.00;97443.59;5111171;28;20488;-85
2022/10/03 06:58:45;;;;;;;13.15;6.55;;;;;;;13.09;100.00;97428.25;5111028;28;20114;-82
2022/10/03 07:01:10;;;;;;;12.65;6.18;;;;;;;12.64;100.00;97409.16;5128166;27;20033;-83
2022/10/03 07:03:48;;;;;;;12.40;5.95;;;;;;;12.28;100.00;97423.34;5110777;28;20114;-83
2022/10/03 07:06:20;;;;;;;12.38;6.90;;;;;;;11.96;100.00;97427.44;5110870;28;20039;-84
2022/10/03 07:09:04;;;;;;;14.98;8.80;;;;;;;11.94;100.00;97482.97;5110834;28;20024;-84
2022/10/03 07:12:07;;;;;;;10.45;6.47;;;;;;;12.01;100.00;97513.75;5129263;27;20122;-84
2022/10/03 07:14:41;;;;;;;15.20;8.05;;;;;;;12.12;100.00;97540.69;5127446;27;20043;-84
2022/10/03 07:17:15;;;;;;;86.15;48.25;;;;;;;12.24;100.00;97574.72;5127881;27;20032;-83
2022/10/03 07:19:51;;;;;;;15.77;10.05;;;;;;;12.11;100.00;97584.56;5094317;28;20162;-84
2022/10/03 07:22:41;;;;;;;17.75;10.23;;;;;;;12.25;100.00;97611.31;5094207;28;20475;-84
2022/10/03 07:25:45;;;;;;;18.80;10.50;;;;;;;12.28;100.00;97626.31;5100187;28;20095;-84
2022/10/03 07:28:57;;;;;;;16.38;9.60;;;;;;;12.29;100.00;97609.28;5034154;28;20029;-83
2022/10/03 07:31:56;;;;;;;17.95;8.75;;;;;;;12.26;100.00;97602.31;5030353;28;20241;-84
2022/10/03 07:34:41;;;;;;;14.05;8.32;;;;;;;12.29;100.00;97612.81;5112675;28;20030;-84
2022/10/03 07:40:49;;;;;;;18.92;9.13;;;;;;;11.99;100.00;97582.72;5109078;28;20506;-85
2022/10/03 07:43:33;;;;;;;16.30;9.57;;;;;;;11.80;100.00;97585.75;5093794;28;20447;-82
2022/10/03 07:46:24;;;;;;;20.98;10.90;;;;;;;11.80;100.00;97614.38;5133392;27;20451;-83
2022/10/03 07:49:27;;;;;;;15.73;9.23;;;;;;;11.94;100.00;97630.41;5115701;28;20051;-84
2022/10/03 07:51:59;;;;;;;;;;;;;;;11.99;100.00;97636.34;5134197;27;20042;-84
2022/10/03 07:54:35;;;;;;;20.38;11.15;;;;;;;12.05;100.00;97633.25;5117429;28;19950;-84
2022/10/03 07:57:36;;;;;;;23.75;13.35;;;;;;;12.15;100.00;97633.50;5109118;28;20083;-84
2022/10/03 08:00:23;;;;;;;18.83;10.35;;;;;;;12.28;100.00;97621.81;5095070;28;20046;-84
2022/10/03 08:03:26;;;;;;;24.15;13.27;;;;;;;12.36;100.00;97622.19;5098807;28;20039;-84
2022/10/03 08:05:55;;;;;;;;;;;;;;;12.46;100.00;97617.88;5109596;28;20397;-84
2022/10/03 08:08:23;;;;;;;15.68;7.35;;;;;;;12.47;100.00;97608.03;5116011;28;20291;-84
2022/10/03 08:11:14;;;;;;;14.57;9.18;;;;;;;12.52;100.00;97618.47;5131686;27;20402;-84
2022/10/03 08:14:18;;;;;;;16.27;9.55;;;;;;;12.77;100.00;97631.88;5113572;28;20451;-84
2022/10/03 08:17:14;;;;;;;13.82;6.30;;;;;;;13.03;100.00;97633.63;5113809;28;20027;-84
2022/10/03 08:19:56;;;;;;;10.52;6.78;;;;;;;13.28;100.00;97636.31;5116346;27;20059;-85
2022/10/03 08:22:41;;;;;;;12.32;8.32;;;;;;;13.33;100.00;97612.66;5098475;28;20028;-84
2022/10/03 08:25:26;;;;;;;30.92;16.50;;;;;;;13.49;100.00;97607.91;5092953;28;20445;-84
2022/10/03 08:28:08;;;;;;;13.13;5.97;;;;;;;13.50;100.00;97577.34;5098507;28;20080;-85
2022/10/03 08:30:51;;;;;;;;;;;;;;;13.65;100.00;97585.28;5087009;28;20031;-85
2022/10/03 08:33:38;;;;;;;10.45;5.10;;;;;;;13.70;100.00;97585.78;5103156;28;19912;-83
2022/10/03 08:36:41;;;;;;;7.82;5.00;;;;;;;13.91;100.00;97598.50;5106554;28;20494;-84
2022/10/03 08:39:06;;;;;;;;;;;;;;;13.99;100.00;97611.38;5132009;27;20079;-84
2022/10/03 08:42:03;;;;;;;14.55;6.72;;;;;;;14.14;100.00;97631.75;5114869;28;19911;-84
2022/10/03 08:44:39;;;;;;;16.38;7.15;;;;;;;14.33;100.00;97631.28;5102683;28;20039;-84
2022/10/03 08:47:42;;;;;;;12.23;7.78;;;;;;;14.53;100.00;97628.78;5125624;27;20046;-85
2022/10/03 08:50:26;;;;;;;;;;;;;;;14.68;100.00;97621.34;5111711;28;20092;-84
2022/10/03 08:53:12;;;;;;;50.30;28.25;;;;;;;14.64;100.00;97615.31;5109351;28;19915;-83
2022/10/03 08:55:58;;;;;;;13.80;9.07;;;;;;;14.56;100.00;97609.69;5117306;27;20030;-84
2022/10/03 08:59:03;;;;;;;18.45;9.43;;;;;;;14.62;100.00;97614.59;5121426;28;20038;-86
2022/10/03 09:01:31;;;;;;;13.32;8.38;;;;;;;14.70;100.00;97610.47;5010065;28;20033;-84
2022/10/03 09:04:15;;;;;;;13.50;8.00;;;;;;;14.93;100.00;97612.22;4998765;28;20040;-78
2022/10/03 09:06:59;;;;;;;13.90;6.60;;;;;;;15.31;100.00;97601.97;5071504;27;20502;-77
2022/10/03 09:09:34;;;;;;;11.73;5.93;;;;;;;15.91;100.00;97604.22;5099775;28;20110;-77
2022/10/03 09:12:17;;;;;;;11.52;4.82;;;;;;;16.77;100.00;97596.91;5111362;28;20421;-77
2022/10/03 09:14:49;;;;;;;4.95;3.90;;;;;;;17.41;100.00;97572.34;5106331;28;20057;-79
2022/10/03 09:17:50;;;;;;;4.13;3.20;;;;;;;18.41;100.00;97547.75;5111431;28;20491;-78
2022/10/03 09:20:42;;;;;;;9.38;3.03;;;;;;;18.36;95.72;97512.09;5085361;28;20849;-78
2022/10/03 09:23:37;;;;;;;5.55;2.55;;;;;;;18.64;94.35;97504.97;5103219;28;20439;-80
2022/10/03 09:26:39;;;;;;;4.25;2.42;;;;;;;21.13;81.14;97497.00;5111382;28;20758;-80
2022/10/03 09:29:26;;;;;;;3.53;2.30;;;;;;;21.11;74.81;97443.75;5101407;28;20096;-79
2022/10/03 09:31:54;;;;;;;3.38;2.20;;;;;;;20.66;75.51;97430.41;5107621;28;20269;-79
2022/10/03 09:34:46;;;;;;;2.63;1.85;;;;;;;20.64;73.14;97424.28;5111033;28;20031;-79
2022/10/03 09:37:30;;;;;;;2.15;1.50;;;;;;;21.16;69.75;97408.78;5083851;28;20030;-79
2022/10/03 09:40:07;;;;;;;3.40;2.63;;;;;;;21.14;72.02;97410.78;5118969;27;20076;-78
2022/10/03 09:43:07;;;;;;;2.83;2.33;;;;;;;21.31;70.41;97407.13;5096274;28;20032;-80
2022/10/03 09:45:41;;;;;;;5.82;3.20;;;;;;;20.87;70.50;97392.78;5121099;27;20491;-79
2022/10/03 09:48:31;;;;;;;2.90;2.28;;;;;;;21.85;68.93;97405.69;5111162;28;20467;-79
2022/10/03 09:51:20;;;;;;;3.20;2.08;;;;;;;23.09;62.42;97386.16;5110226;28;20040;-79
2022/10/03 09:54:01;;;;;;;5.72;2.08;;;;;;;23.96;57.19;97377.66;5081795;28;20035;-79
2022/10/03 09:56:50;;;;;;;2.97;1.40;;;;;;;24.58;57.42;97370.09;5100804;28;20035;-79
2022/10/03 09:59:33;;;;;;;4.78;2.30;;;;;;;25.76;53.06;97349.81;5100450;28;20050;-79
2022/10/03 10:02:02;;;;;;;8.40;2.38;;;;;;;27.02;48.90;97340.75;5098626;28;20469;-80
2022/10/03 10:04:51;;;;;;;2.83;2.20;;;;;;;27.17;47.53;97322.25;5099477;28;20593;-80
2022/10/03 10:07:47;;;;;;;5.50;2.38;;;;;;;28.79;46.22;97319.19;5093124;28;20027;-80
2022/10/03 10:10:39;;;;;;;9.52;2.40;;;;;;;28.56;46.76;97303.06;5111655;28;20019;-80
2022/10/03 10:13:17;;;;;;;3.20;2.05;;;;;;;29.26;43.79;97288.53;5086265;28;20031;-80
2022/10/03 10:16:08;;;;;;;3.95;1.83;;;;;;;29.90;41.83;97284.81;5121061;27;20036;-81
2022/10/03 10:18:58;;;;;;;4.47;3.17;;;;;;;30.42;42.51;97289.94;5112088;28;20024;-81
2022/10/03 10:21:35;;;;;;;8.68;3.45;;;;;;;29.59;42.23;97280.09;5118755;27;20347;-81
2022/10/03 10:24:03;;;;;;;6.03;3.50;;;;;;;26.13;48.14;97266.44;5103045;28;20028;-81
2022/10/03 10:26:46;;;;;;;6.03;3.40;;;;;;;25.75;50.17;97276.88;5112484;28;20161;-80
2022/10/03 10:29:27;;;;;;;3.25;2.70;;;;;;;25.57;48.48;97256.44;5118815;27;20047;-81
2022/10/03 10:32:20;;;;;;;4.35;2.30;;;;;;;24.49;53.10;97260.97;5130902;27;20379;-80
2022/10/03 10:34:58;;;;;;;4.88;2.75;;;;;;;24.31;52.27;97247.69;5113915;27;20027;-80
2022/10/03 10:37:33;;;;;;;2.78;2.20;;;;;;;25.21;49.65;97257.31;5131417;27;20023;-79
2022/10/03 10:40:13;;;;;;;4.45;1.50;;;;;;;25.28;47.20;97241.81;5132084;27;20335;-78
2022/10/03 10:43:36;;;;;;;2.35;1.20;;;;;;;26.76;44.99;97265.41;5131426;27;20394;-80
2022/10/03 10:46:41;;;;;;;3.47;1.50;;;;;;;26.94;45.30;97253.91;5049045;28;20488;-79
2022/10/03 10:49:39;;;;;;;3.33;2.35;;;;;;;26.03;48.23;97246.75;5031317;28;20500;-80
2022/10/03 10:52:31;;;;;;;2.35;1.80;;;;;;;25.63;48.55;97240.06;5109809;27;20039;-80
2022/10/03 10:55:05;;;;;;;2.67;1.60;;;;;;;26.83;47.18;97257.22;5114548;27;20152;-80
2022/10/03 10:58:02;;;;;;;15.77;10.73;;;;;;;28.61;42.31;97256.47;5114588;27;20027;-81
2022/10/03 11:00:48;;;;;;;4.40;2.17;;;;;;;30.89;38.03;97251.59;5125961;27;20026;-80
2022/10/03 11:03:29;;;;;;;2.17;1.65;;;;;;;31.88;35.91;97235.41;5127747;27;20027;-81
2022/10/03 11:06:32;;;;;;;4.65;1.33;;;;;;;30.45;37.70;97223.22;5135995;27;20446;-81
2022/10/03 11:09:35;;;;;;;3.67;1.65;;;;;;;30.86;37.84;97232.72;5139690;27;20098;-81
2022/10/03 11:12:10;;;;;;;2.25;1.70;;;;;;;32.49;35.69;97223.09;5112105;27;20095;-80
2022/10/03 11:14:54;;;;;;;3.55;1.50;;;;;;;32.74;35.09;97213.50;5111962;27;20041;-80
2022/10/03 11:17:57;;;;;;;1.77;1.13;;;;;;;32.15;36.04;97203.47;5130353;27;20050;-80
2022/10/03 11:21:00;;;;;;;8.00;2.00;;;;;;;29.90;38.77;97191.00;5106474;27;20015;-80
2022/10/03 11:24:00;;;;;;;1.40;1.02;;;;;;;29.51;38.70;97170.91;5125340;27;20027;-80
2022/10/03 11:26:44;;;;;;;3.10;0.90;;;;;;;29.62;38.65;97177.63;5111373;28;20542;-80
2022/10/03 11:29:39;;;;;;;1.63;1.10;;;;;;;30.49;38.04;97183.00;5129974;27;20630;-80
2022/10/03 11:32:39;;;;;;;1.08;0.98;;;;;;;31.21;36.99;97183.22;5112225;27;20027;-80
2022/10/03 11:35:38;;;;;;;1.67;1.00;;;;;;;31.45;36.76;97177.53;5128802;27;20458;-81
2022/10/03 11:38:15;;;;;;;2.72;1.23;;;;;;;28.30;39.43;97143.50;5094920;28;20038;-80
2022/10/03 11:41:05;;;;;;;0.93;0.77;;;;;;;28.00;40.20;97162.34;5112109;28;20410;-79
2022/10/03 11:43:48;;;;;;;1.30;1.20;;;;;;;28.56;41.40;97183.84;5112949;28;20035;-80
2022/10/03 11:46:21;;;;;;;3.42;1.33;;;;;;;29.73;39.36;97181.56;5115830;28;20028;-81
2022/10/03 11:48:57;;;;;;;2.00;1.20;;;;;;;29.72;38.22;97164.16;5102587;28;20031;-82
2022/10/03 11:51:22;;;;;;;1.02;0.93;;;;;;;29.82;38.56;97164.53;5132434;28;20064;-80
2022/10/03 11:53:58;;;;;;;7.65;2.70;;;;;;;31.11;37.84;97183.75;5129503;28;20050;-80
2022/10/03 11:56:40;;;;;;;1.30;1.00;;;;;;;31.03;36.76;97164.75;5129496;28;20027;-80
2022/10/03 11:59:24;;;;;;;1.00;0.90;;;;;;;30.64;36.03;97144.81;5110975;28;20023;-80
2022/10/03 12:02:33;;;;;;;5.13;1.10;;;;;;;31.31;35.44;97140.13;5129057;28;20099;-80
2022/10/03 12:05:01;;;;;;;0.95;0.65;;;;;;;31.10;35.00;97129.59;5111743;28;20031;-80
2022/10/03 12:10:43;;;;;;;2.42;1.15;;;;;;;30.74;33.64;97110.25;5128113;28;20034;-81
2022/10/03 12:13:16;;;;;;;0.80;0.80;;;;;;;31.94;33.28;97131.22;5093930;28;20064;-80
2022/10/03 12:15:57;;;;;;;0.95;0.80;;;;;;;31.86;32.63;97109.44;5094235;28;20023;-80
2022/10/03 12:18:48;;;;;;;;;;;;;;;31.91;32.27;97106.78;5110329;28;20483;-80
2022/10/03 12:21:18;;;;;;;0.95;0.70;;;;;;;33.19;31.14;97126.88;5110666;28;20318;-79
2022/10/03 12:24:02;;;;;;;0.70;0.70;;;;;;;33.06;31.15;97113.25;5110994;28;20502;-79
2022/10/03 12:26:42;;;;;;;1.50;0.98;;;;;;;30.96;32.42;97081.09;5129611;28;20023;-79
2022/10/03 12:29:10;;;;;;;1.02;0.70;;;;;;;28.55;34.22;97069.31;5094183;28;20130;-80
2022/10/03 12:31:50;;;;;;;1.20;1.10;;;;;;;27.35;36.98;97078.84;5096483;27;20085;-79
2022/10/03 12:34:48;;;;;;;3.00;0.88;;;;;;;25.98;37.84;97081.16;5115064;27;20123;-79
2022/10/03 12:37:22;;;;;;;2.15;1.40;;;;;;;26.26;38.84;97103.91;5114704;27;20083;-80
2022/10/03 12:40:19;;;;;;;0.90;0.80;;;;;;;25.86;41.25;97109.16;5114410;27;20103;-79
2022/10/03 12:42:58;;;;;;;6.47;1.90;;;;;;;25.73;43.50;97128.25;5109715;27;20023;-76
2022/10/03 12:45:47;;;;;;;2.90;1.83;;;;;;;25.02;45.72;97132.00;5132502;27;20444;-76
2022/10/03 12:48:18;;;;;;;0.93;0.88;;;;;;;23.83;45.72;97127.94;5096952;27;20019;-78
2022/10/03 12:50:47;;;;;;;1.60;1.05;;;;;;;23.00;46.14;97136.19;5114770;27;20394;-78
2022/10/03 12:53:16;;;;;;;2.10;1.33;;;;;;;22.75;46.24;97140.13;5132480;27;20033;-79
2022/10/03 12:56:10;;;;;;;2.45;1.67;;;;;;;21.99;46.67;97136.25;5133045;27;20033;-78
2022/10/03 12:58:54;;;;;;;2.08;1.10;;;;;;;21.68;47.00;97140.72;5096019;27;20030;-79
2022/10/03 13:01:27;;;;;;;1.20;0.98;;;;;;;21.30;48.15;97141.47;5098010;27;20494;-77
2022/10/03 13:04:51;;;;;;;2.50;1.70;;;;;;;21.55;47.53;97149.44;5115037;27;20023;-78
2022/10/03 13:07:44;;;;;;;1.98;1.40;;;;;;;22.89;45.20;97156.56;5067562;28;20217;-79